createdAt,value
2023-01-15T00:00:43.363Z,43.25
2023-01-15T00:01:46.120Z,43.23
2023-01-15T00:02:49.979Z,43.24
2023-01-15T00:03:53.921Z,43.23
2023-01-15T00:04:57.444Z,43.21
2023-01-15T00:06:04.230Z,43.19
2023-01-15T00:07:07.506Z,43.19
2023-01-15T00:08:09.716Z,43.16
2023-01-15T05:56:59.002Z,50.54
2023-01-15T05:58:01.758Z,50.50
2023-01-15T05:59:05.111Z,50.43
2023-01-15T06:00:08.796Z,50.31
2023-01-15T06:01:13.058Z,49.99
2023-01-15T06:02:16.771Z,49.70
2023-01-15T06:03:19.466Z,49.40
2023-01-15T06:04:22.182Z,49.19
2023-01-15T06:05:24.572Z,48.94
2023-01-15T06:06:27.910Z,48.64
2023-01-15T06:07:30.746Z,48.32
2023-01-15T06:08:32.981Z,48.09
2023-01-15T06:09:35.847Z,47.77
2023-01-15T06:10:38.405Z,47.58
2023-01-15T06:11:41.303Z,47.34
2023-01-15T06:12:44.547Z,47.10
2023-01-15T06:13:46.838Z,46.88
2023-01-15T06:14:49.261Z,46.59
2023-01-15T06:15:53.217Z,46.45
2023-01-15T06:16:55.876Z,46.23
2023-01-15T06:17:59.286Z,46.03
2023-01-15T06:21:12.671Z,45.44
2023-01-15T06:22:16.223Z,45.10
2023-01-15T06:23:18.917Z,45.10
2023-01-15T06:24:21.347Z,45.15
2023-01-15T06:25:23.762Z,45.09
2023-01-15T06:26:26.707Z,45.00
2023-01-15T06:27:29.397Z,44.95
2023-01-15T06:28:31.938Z,44.89
2023-01-15T06:29:34.537Z,44.78
2023-01-15T06:30:39.441Z,44.76
2023-01-15T06:31:41.917Z,44.72
2023-01-15T06:32:44.543Z,44.59
2023-01-15T06:33:46.962Z,44.57
2023-01-15T06:34:49.676Z,44.51
2023-01-15T06:35:52.228Z,44.49
2023-01-15T06:36:55.695Z,44.45
2023-01-15T06:37:59.576Z,44.32
2023-01-15T06:39:05.111Z,44.30
2023-01-15T06:41:33.009Z,44.16
2023-01-15T06:42:55.132Z,44.12
2023-01-15T06:44:15.928Z,44.04
2023-01-15T06:45:37.271Z,43.99
2023-01-15T06:48:24.087Z,43.89
2023-01-15T06:49:27.336Z,43.81
2023-01-15T06:50:30.283Z,43.82
2023-01-15T06:51:33.730Z,43.80
2023-01-15T06:52:36.606Z,43.81
2023-01-15T06:53:39.640Z,43.76
2023-01-15T06:54:42.192Z,43.70
2023-01-15T06:55:44.616Z,43.71
2023-01-15T06:56:48.037Z,43.63
2023-01-15T06:57:50.454Z,43.65
2023-01-15T06:58:55.149Z,43.53
2023-01-15T06:59:58.063Z,43.50
2023-01-15T07:01:00.860Z,43.48
2023-01-15T07:02:03.901Z,43.48
2023-01-15T07:03:06.781Z,43.41
2023-01-15T07:04:09.722Z,43.35
2023-01-15T07:05:13.273Z,43.36
2023-01-15T07:06:16.492Z,43.34
2023-01-15T07:07:20.068Z,43.27
2023-01-15T07:08:23.097Z,43.27
2023-01-15T07:09:26.514Z,43.22
2023-01-15T07:10:29.521Z,43.21
2023-01-15T07:11:32.803Z,43.13
2023-01-15T07:12:36.695Z,43.13
2023-01-15T07:13:42.586Z,43.14
2023-01-15T07:14:45.190Z,43.14
2023-01-15T07:15:48.491Z,43.08
2023-01-15T07:16:51.089Z,43.08
2023-01-15T07:17:57.978Z,43.06
2023-01-15T07:19:01.365Z,43.08
2023-01-15T07:20:06.879Z,43.02
2023-01-15T07:21:09.667Z,43.00
2023-01-15T07:22:12.343Z,42.93
2023-01-15T07:23:16.702Z,42.83
2023-01-15T07:24:19.073Z,42.83
2023-01-15T07:25:23.414Z,42.74
2023-01-15T07:26:27.013Z,42.74
2023-01-15T07:27:30.116Z,42.71
2023-01-15T07:28:32.311Z,42.70
2023-01-15T07:29:36.659Z,42.68
2023-01-15T07:30:39.535Z,42.65
2023-01-15T07:31:42.667Z,42.65
2023-01-15T07:32:47.423Z,42.67
2023-01-15T07:33:51.592Z,42.62
2023-01-15T07:34:54.004Z,42.62
2023-01-15T07:35:57.529Z,42.67
2023-01-15T07:37:00.036Z,42.65
2023-01-15T07:38:02.770Z,42.67
2023-01-15T07:39:05.972Z,42.75
2023-01-15T07:40:11.369Z,43.13
2023-01-15T07:41:33.152Z,43.25
2023-01-15T07:42:54.002Z,43.28
2023-01-15T07:44:15.500Z,43.20
2023-01-15T07:45:37.966Z,43.10
2023-01-15T07:46:59.134Z,43.05
2023-01-15T07:48:21.167Z,43.03
2023-01-15T07:49:41.854Z,43.06
2023-01-15T07:50:45.957Z,43.22
2023-01-15T07:54:57.117Z,43.89
2023-01-15T07:55:59.838Z,43.99
2023-01-15T07:57:03.765Z,44.10
2023-01-15T07:58:07.666Z,44.29
2023-01-15T08:08:43.077Z,44.82
2023-01-15T08:11:06.422Z,44.94
2023-01-15T08:12:28.319Z,45.03
2023-01-15T08:13:49.162Z,45.05
2023-01-15T08:15:10.357Z,45.06
2023-01-15T08:16:16.706Z,45.13
2023-01-15T08:17:20.331Z,45.17
2023-01-15T08:18:23.095Z,45.30
2023-01-15T08:19:27.414Z,45.32
2023-01-15T08:20:29.901Z,45.39
2023-01-15T08:21:32.221Z,45.44
2023-01-15T08:22:37.676Z,45.50
2023-01-15T08:23:40.036Z,45.49
2023-01-15T08:24:42.867Z,45.45
2023-01-15T08:25:45.132Z,45.41
2023-01-15T08:26:48.327Z,45.49
2023-01-15T08:27:51.928Z,45.47
2023-01-15T08:28:54.499Z,45.53
2023-01-15T08:29:57.747Z,45.47
2023-01-15T08:31:00.315Z,45.42
2023-01-15T08:32:03.473Z,45.42
2023-01-15T08:33:06.578Z,45.44
2023-01-15T08:34:10.294Z,45.42
2023-01-15T08:35:13.334Z,45.41
2023-01-15T08:36:17.421Z,45.37
2023-01-15T08:37:23.759Z,45.36
2023-01-15T08:38:27.359Z,45.35
2023-01-15T08:39:30.175Z,45.34
2023-01-15T08:40:33.672Z,45.36
2023-01-15T08:41:37.274Z,45.32
2023-01-15T08:42:40.229Z,45.28
2023-01-15T08:43:47.658Z,45.27
2023-01-15T08:44:50.687Z,45.24
2023-01-15T08:48:38.131Z,45.22
2023-01-15T08:49:42.746Z,45.20
2023-01-15T08:50:46.793Z,45.21
2023-01-15T08:51:52.140Z,45.15
2023-01-15T08:52:54.751Z,45.16
2023-01-15T08:53:57.391Z,45.17
2023-01-15T08:55:03.897Z,45.14
2023-01-15T08:56:16.912Z,45.10
2023-01-15T08:57:19.416Z,45.08
2023-01-15T08:58:22.424Z,45.03
2023-01-15T08:59:24.801Z,45.01
2023-01-15T09:00:30.687Z,45.08
2023-01-15T09:01:36.296Z,45.14
2023-01-15T09:02:40.557Z,45.18
2023-01-15T09:03:43.974Z,45.18
2023-01-15T09:04:48.292Z,45.27
2023-01-15T09:05:55.344Z,45.38
2023-01-15T09:06:59.252Z,45.40
2023-01-15T09:08:02.103Z,45.56
2023-01-15T09:09:05.100Z,45.60
2023-01-15T09:10:08.906Z,45.67
2023-01-15T09:11:13.837Z,45.74
2023-01-15T09:12:16.595Z,45.71
2023-01-15T09:13:20.077Z,45.75
2023-01-15T09:14:57.389Z,45.74
2023-01-15T09:15:31.275Z,45.69
2023-01-15T09:16:35.555Z,45.74
2023-01-15T09:17:39.878Z,45.89
2023-01-15T09:18:42.844Z,45.97
2023-01-15T09:19:46.660Z,45.97
2023-01-15T09:20:51.365Z,45.94
2023-01-15T09:21:53.925Z,45.90
2023-01-15T09:22:56.230Z,45.95
2023-01-15T09:24:02.253Z,45.90
2023-01-15T09:25:06.574Z,45.89
2023-01-15T09:27:38.390Z,45.82
2023-01-15T09:28:40.693Z,45.73
2023-01-15T09:29:43.888Z,45.72
2023-01-15T09:30:46.752Z,45.77
2023-01-15T09:31:50.699Z,45.72
2023-01-15T09:32:54.110Z,45.72
2023-01-15T09:33:56.364Z,45.85
2023-01-15T09:34:59.639Z,45.91
2023-01-15T09:36:03.029Z,46.00
2023-01-15T09:37:05.397Z,46.06
2023-01-15T09:38:12.634Z,45.90
2023-01-15T09:39:15.809Z,45.96
2023-01-15T09:42:07.328Z,45.89
2023-01-15T09:43:30.794Z,45.85
2023-01-15T09:45:06.777Z,45.82
2023-01-15T09:47:40.539Z,45.84
2023-01-15T09:49:00.300Z,45.88
2023-01-15T15:47:23.018Z,52.57
2023-01-15T15:48:45.683Z,52.56
2023-01-15T15:49:48.027Z,52.53
2023-01-15T15:50:50.424Z,52.44
2023-01-15T15:51:53.967Z,52.35
2023-01-15T15:52:58.773Z,52.23
2023-01-15T15:54:20.898Z,52.02
2023-01-15T15:55:25.350Z,51.82
2023-01-15T15:56:30.596Z,51.48
2023-01-15T15:57:33.764Z,51.25
2023-01-15T15:58:36.232Z,50.97
2023-01-15T15:59:41.275Z,50.71
2023-01-15T16:00:45.138Z,50.44
2023-01-15T16:01:47.683Z,50.17
2023-01-15T16:02:50.448Z,49.93
2023-01-15T16:03:53.276Z,49.67
2023-01-15T16:04:59.121Z,49.42
2023-01-15T16:06:06.393Z,49.14
2023-01-15T16:07:13.620Z,48.89
2023-01-15T16:08:18.271Z,48.66
2023-01-15T16:09:26.120Z,48.48
2023-01-15T16:10:33.699Z,48.24
2023-01-15T16:11:36.254Z,48.04
2023-01-15T16:12:44.185Z,47.85
2023-01-15T16:46:04.719Z,50.22
2023-01-15T16:47:07.233Z,50.39
2023-01-15T16:48:13.984Z,50.45
2023-01-15T16:49:23.132Z,50.51
2023-01-15T16:50:28.587Z,50.47
2023-01-15T16:52:53.703Z,50.18
2023-01-15T16:55:34.850Z,49.73
2023-01-15T16:56:41.636Z,49.51
2023-01-15T16:57:44.846Z,49.22
2023-01-15T16:58:47.819Z,48.99
2023-01-15T16:59:55.868Z,48.79
2023-01-15T17:00:58.395Z,48.63
2023-01-15T17:02:05.818Z,48.39
2023-01-15T17:04:36.324Z,47.96
2023-01-15T17:05:40.031Z,47.75
2023-01-15T17:06:42.481Z,47.57
2023-01-15T17:07:47.121Z,47.41
2023-01-15T17:08:51.339Z,47.23
2023-01-15T17:09:58.522Z,47.11
2023-01-15T17:11:03.418Z,46.92
2023-01-15T17:12:18.405Z,46.80
2023-01-15T17:13:21.036Z,46.61
2023-01-15T17:14:25.734Z,46.47
2023-01-15T17:15:30.379Z,46.38
2023-01-15T17:16:33.870Z,46.35
2023-01-15T17:17:36.247Z,46.44
2023-01-15T17:18:40.862Z,46.44
2023-01-15T17:19:43.179Z,46.07
2023-01-15T17:20:46.569Z,45.93
2023-01-15T17:21:51.095Z,45.86
2023-01-15T17:22:53.381Z,45.72
2023-01-15T17:23:56.441Z,45.69
2023-01-15T17:25:01.596Z,45.62
2023-01-15T17:27:17.855Z,45.49
2023-01-15T17:28:21.912Z,45.39
2023-01-15T17:29:24.796Z,45.33
2023-01-15T17:30:29.777Z,45.24
2023-01-15T17:31:33.464Z,45.23
2023-01-15T17:32:37.570Z,45.14
2023-01-15T17:33:40.495Z,45.10
2023-01-15T17:34:43.180Z,45.02
2023-01-15T17:35:47.386Z,45.00
2023-01-15T17:36:51.204Z,45.00
2023-01-15T17:37:53.670Z,44.94
2023-01-15T17:38:56.167Z,44.88
2023-01-15T17:39:58.919Z,44.86
2023-01-15T17:41:04.123Z,44.81
2023-01-15T17:43:26.446Z,44.73
2023-01-15T17:44:28.751Z,44.68
2023-01-15T17:45:33.317Z,44.68
2023-01-15T17:46:36.969Z,44.67
2023-01-15T17:47:40.634Z,44.63
2023-01-15T17:48:44.850Z,44.59
2023-01-15T17:49:47.331Z,44.25
2023-01-15T17:50:49.905Z,44.25
2023-01-15T17:51:52.479Z,44.39
2023-01-15T17:52:57.320Z,44.39
2023-01-15T17:53:59.695Z,44.46
2023-01-15T17:55:20.572Z,44.45
2023-01-15T17:56:41.302Z,44.42
2023-01-15T17:58:02.089Z,44.39
2023-01-15T18:52:31.049Z,50.46
2023-01-15T18:53:35.548Z,50.58
2023-01-15T18:54:38.256Z,50.58
2023-01-15T22:14:09.304Z,51.87
2023-01-15T22:15:11.787Z,51.92
2023-01-15T22:16:15.230Z,51.93
2023-01-15T22:17:17.660Z,51.93
2023-01-15T22:18:20.408Z,51.84
2023-01-15T22:19:24.787Z,51.71
2023-01-15T22:20:28.204Z,51.60
2023-01-15T22:21:31.671Z,51.34
2023-01-15T22:22:36.184Z,51.10
2023-01-15T22:23:38.691Z,50.87
2023-01-15T22:24:42.222Z,50.57
2023-01-15T22:25:46.735Z,50.26
2023-01-15T22:26:51.189Z,50.03
2023-01-15T22:27:54.366Z,49.69
2023-01-15T22:29:00.591Z,49.51
2023-01-15T22:30:03.499Z,49.21
2023-01-15T22:31:06.330Z,48.96
2023-01-15T22:32:10.550Z,48.69
2023-01-15T22:33:14.414Z,48.33
2023-01-15T22:34:17.311Z,48.16
2023-01-15T22:35:20.558Z,48.05
2023-01-15T22:36:25.143Z,47.80
2023-01-15T22:37:27.519Z,47.72
2023-01-15T22:38:30.519Z,47.50
2023-01-15T22:39:33.486Z,47.26
2023-01-15T22:40:37.297Z,47.14
2023-01-15T22:41:58.407Z,47.00
2023-01-15T22:43:00.863Z,46.88
2023-01-15T22:44:04.887Z,46.65
2023-01-15T22:45:08.319Z,46.45
2023-01-15T22:46:12.421Z,46.36
2023-01-15T22:47:15.357Z,46.33
2023-01-15T22:48:18.859Z,46.13
2023-01-15T22:49:22.812Z,46.03
2023-01-15T22:50:26.167Z,45.94
2023-01-15T22:51:28.548Z,45.88
2023-01-15T22:52:31.787Z,45.83
2023-01-15T22:53:35.559Z,45.73
2023-01-15T22:54:39.134Z,45.65
2023-01-15T22:55:42.417Z,45.52
2023-01-15T22:56:45.224Z,45.49
2023-01-15T22:57:48.538Z,45.44
2023-01-15T22:58:56.738Z,45.37
2023-01-15T22:59:59.902Z,45.30
2023-01-15T23:01:02.347Z,45.23
2023-01-15T23:02:05.368Z,45.16
2023-01-15T23:03:09.756Z,45.08
2023-01-15T23:04:20.470Z,45.06
2023-01-15T23:05:23.721Z,45.03
2023-01-15T23:06:28.093Z,44.97
2023-01-15T23:07:31.663Z,44.87
2023-01-15T23:08:35.481Z,44.77
2023-01-15T23:09:38.657Z,44.77
2023-01-15T23:11:49.668Z,44.78
2023-01-15T23:22:29.684Z,44.52
2023-01-15T23:23:33.134Z,44.45
2023-01-15T23:24:36.114Z,44.45
2023-01-15T23:25:39.058Z,44.41
2023-01-15T23:26:42.367Z,44.43
2023-01-15T23:27:45.749Z,44.40
2023-01-15T23:28:48.383Z,44.38
2023-01-15T23:29:51.285Z,44.52
2023-01-15T23:30:53.934Z,44.52
2023-01-15T23:31:56.516Z,44.28
2023-01-15T23:32:58.872Z,44.28
2023-01-15T23:34:01.706Z,44.28
2023-01-15T23:35:06.280Z,44.25
2023-01-15T23:36:12.061Z,44.24
2023-01-15T23:37:15.643Z,44.22
2023-01-15T23:38:18.211Z,44.16
2023-01-15T23:39:20.778Z,44.16
2023-01-15T23:40:23.509Z,44.15
2023-01-15T23:41:45.421Z,44.14
2023-01-15T23:43:06.201Z,44.15
2023-01-15T23:44:34.708Z,44.09
2023-01-15T23:45:55.872Z,44.09
2023-01-15T23:46:59.781Z,44.09
2023-01-15T23:48:02.203Z,44.09
2023-01-15T23:50:18.824Z,44.15
2023-01-15T23:51:21.587Z,44.14
2023-01-15T23:52:24.082Z,44.17
2023-01-15T23:53:26.697Z,44.17
2023-01-15T23:54:30.877Z,44.16
2023-01-15T23:55:33.342Z,44.18
2023-01-15T23:56:36.385Z,44.15
2023-01-15T23:57:39.394Z,44.16
2023-01-15T23:58:42.724Z,44.12
2023-01-15T23:59:46.654Z,44.14
